Time;durP1;ratioP1;P1;durP2;ratioP2;P2;SDS_P1;SDS_P2;PMS_P1;PMS_P2;Temp;Humidity;BMP_temperature;BMP_pressure;BME280_temperature;BME280_humidity;BME280_pressure;Samples;Min_cycle;Max_cycle;Signal;HPM_P1;HPM_P2
2023/09/28 00:01:36;;;;;;;3.17;1.08;;;18.90;99.90;;;;;;5015354;28;20026;-69
2023/09/28 00:04:02;;;;;;;2.22;1.02;;;18.80;99.90;;;;;;5006182;28;20040;-70
2023/09/28 00:06:28;;;;;;;4.20;1.30;;;18.80;99.90;;;;;;5007288;28;20084;-71
2023/09/28 00:08:54;;;;;;;4.10;1.58;;;18.80;99.90;;;;;;5008653;28;20030;-70
2023/09/28 00:11:20;;;;;;;3.17;0.88;;;18.70;99.90;;;;;;5002445;28;20549;-70
2023/09/28 00:13:45;;;;;;;2.67;1.25;;;18.70;99.90;;;;;;5007614;28;20034;-71
2023/09/28 00:16:11;;;;;;;2.13;1.33;;;18.60;99.90;;;;;;5007693;28;20038;-71
2023/09/28 00:18:36;;;;;;;4.72;1.27;;;18.60;99.90;;;;;;5006070;28;20061;-71
2023/09/28 00:21:02;;;;;;;6.75;1.52;;;18.60;99.90;;;;;;5012957;28;20065;-71
2023/09/28 00:23:28;;;;;;;5.65;2.20;;;18.50;99.90;;;;;;5015403;28;20424;-71
2023/09/28 00:25:54;;;;;;;3.95;1.38;;;18.50;99.90;;;;;;5026360;28;20033;-70
2023/09/28 00:28:19;;;;;;;3.33;1.45;;;18.50;99.90;;;;;;5008955;28;20033;-71
2023/09/28 00:30:45;;;;;;;3.50;1.45;;;18.40;99.90;;;;;;5016373;28;20500;-73
2023/09/28 00:33:10;;;;;;;2.28;1.35;;;18.40;99.90;;;;;;5013537;28;20555;-70
2023/09/28 00:35:36;;;;;;;4.05;1.65;;;18.30;99.90;;;;;;5012844;28;20035;-70
2023/09/28 00:38:02;;;;;;;6.78;2.20;;;18.30;99.90;;;;;;5010603;28;20053;-72
2023/09/28 00:40:28;;;;;;;3.90;1.48;;;18.20;99.90;;;;;;5016030;28;20064;-70
2023/09/28 00:42:55;;;;;;;3.88;1.50;;;18.20;99.90;;;;;;5005801;28;20121;-70
2023/09/28 00:45:24;;;;;;;6.40;1.75;;;18.20;99.90;;;;;;5010099;28;20375;-70
2023/09/28 00:48:00;;;;;;;3.55;1.80;;;18.20;99.90;;;;;;5008638;28;20030;-70
2023/09/28 00:50:28;;;;;;;11.27;1.70;;;18.10;99.90;;;;;;5020369;28;20041;-71
2023/09/28 00:52:57;;;;;;;5.47;1.75;;;18.10;99.90;;;;;;5024067;28;20448;-71
2023/09/28 00:55:27;;;;;;;2.90;1.60;;;18.10;99.90;;;;;;5013819;28;20037;-73
2023/09/28 00:58:00;;;;;;;3.95;1.92;;;18.10;99.90;;;;;;5009555;28;20087;-70
2023/09/28 01:00:29;;;;;;;3.55;1.92;;;18.00;99.90;;;;;;5013680;28;20057;-71
2023/09/28 01:02:57;;;;;;;4.05;1.88;;;18.00;99.90;;;;;;5014112;28;20652;-71
2023/09/28 01:05:34;;;;;;;5.10;1.98;;;18.00;99.90;;;;;;5009295;28;20034;-71
2023/09/28 01:08:12;;;;;;;6.60;1.95;;;18.00;99.90;;;;;;5009997;28;20029;-70
2023/09/28 01:10:40;;;;;;;5.03;2.30;;;17.90;99.90;;;;;;5022338;28;20037;-71
2023/09/28 01:13:10;;;;;;;7.45;2.00;;;17.90;99.90;;;;;;5005603;28;20039;-71
2023/09/28 01:15:47;;;;;;;4.88;2.20;;;17.90;99.90;;;;;;5007117;28;20046;-71
2023/09/28 01:18:15;;;;;;;3.95;1.95;;;17.80;99.90;;;;;;5009967;28;20500;-71
2023/09/28 01:20:43;;;;;;;6.65;3.08;;;17.80;99.90;;;;;;5010740;28;20057;-71
2023/09/28 01:23:09;;;;;;;4.80;2.50;;;17.80;99.90;;;;;;5017141;28;20030;-75
2023/09/28 01:25:35;;;;;;;4.75;2.33;;;17.70;99.90;;;;;;5004996;28;20368;-71
2023/09/28 01:28:03;;;;;;;4.70;2.38;;;17.70;99.90;;;;;;5009271;28;20029;-71
2023/09/28 01:30:29;;;;;;;4.13;1.75;;;17.70;99.90;;;;;;5012066;28;20073;-71
2023/09/28 01:32:55;;;;;;;5.95;2.35;;;17.70;99.90;;;;;;5010502;28;20046;-71
2023/09/28 01:35:21;;;;;;;5.70;2.40;;;17.60;99.90;;;;;;5006337;28;20034;-71
2023/09/28 01:37:52;;;;;;;7.95;2.40;;;17.70;99.90;;;;;;5015519;28;20571;-71
2023/09/28 01:40:18;;;;;;;7.95;2.30;;;17.60;99.90;;;;;;5005712;28;20046;-70
2023/09/28 01:42:43;;;;;;;5.32;2.13;;;17.70;99.90;;;;;;5006699;28;20509;-70
2023/09/28 01:45:09;;;;;;;13.95;2.65;;;17.70;99.90;;;;;;5005107;28;20038;-71
2023/09/28 01:47:35;;;;;;;5.82;2.00;;;17.70;99.90;;;;;;5010099;28;20506;-72
2023/09/28 01:50:01;;;;;;;6.47;2.50;;;17.70;99.90;;;;;;5007972;28;20034;-70
2023/09/28 01:52:27;;;;;;;5.38;2.35;;;17.70;99.90;;;;;;5004479;28;20486;-70
2023/09/28 01:54:53;;;;;;;7.15;2.55;;;17.70;99.90;;;;;;5007364;28;20095;-70
2023/09/28 01:57:18;;;;;;;9.43;2.95;;;17.60;99.90;;;;;;5009034;28;20040;-72
2023/09/28 01:59:44;;;;;;;5.03;2.15;;;17.60;99.90;;;;;;5003730;28;20457;-69
2023/09/28 02:02:10;;;;;;;6.90;2.70;;;17.60;99.90;;;;;;5005176;28;20043;-72
2023/09/28 02:04:39;;;;;;;21.08;2.72;;;17.60;99.90;;;;;;5005005;28;20506;-70
2023/09/28 02:07:04;;;;;;;5.65;3.03;;;17.50;99.90;;;;;;5011474;28;20026;-70
2023/09/28 02:09:33;;;;;;;5.65;2.60;;;17.50;99.90;;;;;;5016583;28;20033;-69
2023/09/28 02:12:00;;;;;;;6.13;2.80;;;17.40;99.90;;;;;;5016476;28;20085;-71
2023/09/28 02:14:26;;;;;;;5.22;2.20;;;17.40;99.90;;;;;;5011136;28;20022;-71
2023/09/28 02:16:52;;;;;;;10.45;2.85;;;17.40;99.90;;;;;;5008218;28;20210;-71
2023/09/28 02:19:17;;;;;;;5.55;2.17;;;17.40;99.90;;;;;;5016767;28;20506;-72
2023/09/28 02:21:43;;;;;;;6.13;2.28;;;17.40;99.90;;;;;;5016852;28;20033;-72
2023/09/28 02:24:09;;;;;;;4.82;2.25;;;17.40;99.90;;;;;;5018082;28;20033;-74
2023/09/28 02:26:35;;;;;;;5.70;2.72;;;17.30;99.90;;;;;;5005263;28;20030;-72
2023/09/28 02:29:02;;;;;;;15.13;2.22;;;17.30;99.90;;;;;;5010141;28;20157;-71
2023/09/28 02:31:28;;;;;;;4.07;2.05;;;17.30;99.90;;;;;;5009683;28;20029;-71
2023/09/28 02:33:54;;;;;;;5.82;2.38;;;17.30;99.90;;;;;;5015209;28;20034;-71
2023/09/28 02:36:20;;;;;;;6.43;2.22;;;17.30;99.90;;;;;;5019885;28;20449;-72
2023/09/28 02:38:46;;;;;;;4.35;2.22;;;17.30;99.90;;;;;;5023353;28;20125;-72
2023/09/28 02:41:15;;;;;;;3.65;2.08;;;17.30;99.90;;;;;;5007860;28;20449;-71
2023/09/28 02:43:41;;;;;;;5.50;2.00;;;17.30;99.90;;;;;;5019514;28;20150;-70
2023/09/28 02:46:07;;;;;;;3.80;1.80;;;17.30;99.90;;;;;;5011509;28;20034;-72
2023/09/28 02:48:33;;;;;;;6.80;1.80;;;17.30;99.90;;;;;;5015485;28;20513;-71
2023/09/28 02:50:59;;;;;;;6.80;1.83;;;17.30;99.90;;;;;;5021896;28;20095;-70
2023/09/28 02:53:25;;;;;;;5.53;1.90;;;17.30;99.90;;;;;;5025463;28;20120;-71
2023/09/28 02:55:51;;;;;;;9.68;3.05;;;17.30;99.90;;;;;;5017922;28;20034;-72
2023/09/28 02:58:16;;;;;;;4.13;1.88;;;17.20;99.90;;;;;;5012688;28;20033;-73
2023/09/28 03:00:42;;;;;;;6.57;1.45;;;17.20;99.90;;;;;;5012623;28;20034;-70
2023/09/28 03:03:09;;;;;;;5.00;2.08;;;17.20;99.90;;;;;;5004643;28;20051;-72
2023/09/28 03:05:38;;;;;;;4.72;1.80;;;17.20;99.90;;;;;;5000322;28;20493;-70
2023/09/28 03:08:09;;;;;;;4.40;2.00;;;17.10;99.90;;;;;;5007808;28;20522;-68
2023/09/28 03:10:39;;;;;;;10.23;2.58;;;17.10;99.90;;;;;;5003282;28;20029;-70
2023/09/28 03:13:05;;;;;;;14.07;2.03;;;17.10;99.90;;;;;;5008937;28;20367;-70
2023/09/28 03:15:31;;;;;;;3.80;1.23;;;17.00;99.90;;;;;;5007913;28;20040;-70
2023/09/28 03:17:57;;;;;;;6.05;1.42;;;17.10;99.90;;;;;;5007493;28;20056;-71
2023/09/28 03:20:24;;;;;;;6.97;2.08;;;17.00;99.90;;;;;;5007194;28;20403;-69
2023/09/28 03:22:50;;;;;;;8.30;2.67;;;17.00;99.90;;;;;;5015669;28;20038;-69
2023/09/28 03:25:18;;;;;;;5.70;1.30;;;17.00;99.90;;;;;;5007829;28;20398;-69
2023/09/28 03:27:52;;;;;;;5.25;1.25;;;17.00;99.90;;;;;;5006875;28;20033;-70
2023/09/28 03:30:19;;;;;;;3.70;1.17;;;17.00;99.90;;;;;;5003887;28;20580;-71
2023/09/28 03:32:48;;;;;;;4.70;1.30;;;16.90;99.90;;;;;;5010135;28;20415;-71
2023/09/28 03:35:16;;;;;;;4.13;1.58;;;16.90;99.90;;;;;;5008394;28;20029;-72
2023/09/28 03:37:42;;;;;;;8.32;1.35;;;16.90;99.90;;;;;;5007764;28;20080;-70
2023/09/28 03:40:11;;;;;;;5.18;1.48;;;16.90;99.90;;;;;;5009861;28;20022;-70
2023/09/28 03:42:39;;;;;;;7.07;1.75;;;16.80;99.90;;;;;;4998571;28;20399;-69
2023/09/28 03:45:08;;;;;;;6.90;1.85;;;16.80;99.90;;;;;;5004085;28;20042;-70
2023/09/28 03:47:37;;;;;;;6.35;2.08;;;16.80;99.90;;;;;;5000608;28;20046;-69
2023/09/28 03:50:05;;;;;;;7.10;1.48;;;16.80;99.90;;;;;;5008922;28;20050;-70
2023/09/28 03:52:31;;;;;;;7.18;1.55;;;16.80;99.90;;;;;;5012564;28;20044;-69
2023/09/28 03:54:57;;;;;;;3.67;1.60;;;16.80;99.90;;;;;;5014022;28;20026;-70
2023/09/28 03:57:23;;;;;;;8.80;1.38;;;16.80;99.90;;;;;;5006252;28;20049;-71
2023/09/28 03:59:49;;;;;;;6.68;1.63;;;16.80;99.90;;;;;;5009600;28;20052;-69
2023/09/28 04:02:15;;;;;;;5.68;1.88;;;16.80;99.90;;;;;;5009735;28;20489;-69
2023/09/28 04:04:40;;;;;;;6.10;1.55;;;16.80;99.90;;;;;;5005329;28;20044;-69
2023/09/28 04:07:08;;;;;;;7.65;1.20;;;16.80;99.90;;;;;;5004402;28;20487;-69
2023/09/28 04:09:33;;;;;;;9.05;1.60;;;16.80;99.90;;;;;;5012863;28;20069;-70
2023/09/28 04:11:59;;;;;;;8.60;1.42;;;16.80;99.90;;;;;;5004343;28;20053;-70
2023/09/28 04:14:25;;;;;;;6.80;1.75;;;16.80;99.90;;;;;;5003368;28;20033;-69
2023/09/28 04:16:51;;;;;;;6.45;1.73;;;16.80;99.90;;;;;;5008553;28;20034;-70
2023/09/28 04:19:16;;;;;;;12.77;2.13;;;16.80;99.90;;;;;;5012135;28;20033;-70
2023/09/28 04:21:42;;;;;;;8.13;1.50;;;16.80;99.90;;;;;;5010388;28;20030;-70
2023/09/28 04:24:08;;;;;;;12.88;1.80;;;16.70;99.90;;;;;;5009811;28;20461;-69
2023/09/28 04:26:34;;;;;;;4.88;1.42;;;16.70;99.90;;;;;;5008963;28;20558;-69
2023/09/28 04:29:00;;;;;;;9.70;1.85;;;16.60;99.90;;;;;;5012094;28;20387;-69
2023/09/28 04:31:25;;;;;;;6.93;1.23;;;16.60;99.90;;;;;;5007716;28;20036;-70
2023/09/28 04:33:51;;;;;;;11.25;1.92;;;16.50;99.90;;;;;;5005178;28;20095;-70
2023/09/28 04:36:16;;;;;;;11.20;2.10;;;16.50;99.90;;;;;;5014838;28;20026;-70
2023/09/28 04:38:43;;;;;;;8.55;0.95;;;16.50;99.90;;;;;;5003944;28;20121;-69
2023/09/28 04:41:08;;;;;;;8.57;1.30;;;16.50;99.90;;;;;;5004302;28;20040;-70
2023/09/28 04:43:34;;;;;;;12.50;1.80;;;16.50;99.90;;;;;;5006085;28;20109;-70
2023/09/28 04:46:05;;;;;;;8.82;1.25;;;16.50;99.90;;;;;;5007075;28;20045;-69
2023/09/28 04:48:31;;;;;;;7.90;1.83;;;16.60;99.90;;;;;;5004785;28;20034;-70
2023/09/28 04:50:57;;;;;;;10.52;1.73;;;16.60;99.90;;;;;;5001496;28;20058;-70
2023/09/28 04:53:23;;;;;;;9.75;1.90;;;16.50;99.90;;;;;;5000068;28;20066;-69
2023/09/28 04:55:48;;;;;;;11.35;2.40;;;16.60;99.90;;;;;;4999917;28;20034;-70
2023/09/28 04:58:14;;;;;;;6.50;1.92;;;16.50;99.90;;;;;;5002335;28;20038;-71
2023/09/28 05:00:39;;;;;;;11.43;1.33;;;16.50;99.90;;;;;;5004472;28;20607;-70
2023/09/28 05:03:05;;;;;;;20.10;2.55;;;16.50;99.90;;;;;;5003437;28;20042;-69
2023/09/28 05:05:32;;;;;;;12.38;1.90;;;16.50;99.90;;;;;;5019194;28;20132;-70
2023/09/28 05:07:58;;;;;;;13.50;1.83;;;16.50;99.90;;;;;;5010978;28;20115;-70
2023/09/28 05:10:24;;;;;;;9.50;1.40;;;16.40;99.90;;;;;;5007317;28;20033;-70
2023/09/28 05:12:50;;;;;;;10.60;1.98;;;16.40;99.90;;;;;;5008234;28;20057;-72
2023/09/28 05:15:15;;;;;;;8.30;1.65;;;16.40;99.90;;;;;;5010329;28;20119;-73
2023/09/28 05:17:42;;;;;;;11.68;2.00;;;16.30;99.90;;;;;;5013125;28;20037;-71
2023/09/28 05:20:08;;;;;;;8.57;1.67;;;16.30;99.90;;;;;;5009265;28;20092;-71
2023/09/28 05:22:35;;;;;;;9.85;1.48;;;16.30;99.90;;;;;;5016652;28;20096;-69
2023/09/28 05:25:01;;;;;;;13.75;2.60;;;16.30;99.90;;;;;;5010629;28;20581;-72
2023/09/28 05:27:27;;;;;;;12.45;2.05;;;16.20;99.90;;;;;;5013305;28;20038;-72
2023/09/28 05:29:52;;;;;;;17.95;3.33;;;16.30;99.90;;;;;;5023803;28;20079;-70
2023/09/28 05:32:18;;;;;;;20.02;2.85;;;16.30;99.90;;;;;;5004551;28;20730;-70
2023/09/28 05:34:43;;;;;;;14.68;2.38;;;16.30;99.90;;;;;;5002974;28;20155;-71
2023/09/28 05:37:10;;;;;;;15.65;2.55;;;16.20;99.90;;;;;;4997951;28;20383;-72
2023/09/28 05:39:35;;;;;;;24.15;3.00;;;16.20;99.90;;;;;;4999630;28;20101;-70
2023/09/28 05:42:01;;;;;;;16.52;2.35;;;16.20;99.90;;;;;;5000439;28;20069;-71
2023/09/28 05:44:27;;;;;;;18.90;2.67;;;16.10;99.90;;;;;;5001777;28;20030;-69
2023/09/28 05:46:53;;;;;;;17.58;2.38;;;16.10;99.90;;;;;;5000786;28;20041;-69
2023/09/28 05:49:19;;;;;;;10.05;1.42;;;16.00;99.90;;;;;;5002970;28;20525;-69
2023/09/28 05:51:45;;;;;;;11.25;2.60;;;16.00;99.90;;;;;;5000250;28;20034;-71
2023/09/28 05:54:10;;;;;;;14.80;2.03;;;16.00;99.90;;;;;;5008940;28;20029;-70
2023/09/28 05:56:36;;;;;;;10.60;1.63;;;15.90;99.90;;;;;;5005805;28;20549;-71
2023/09/28 05:59:02;;;;;;;15.15;2.85;;;15.90;99.90;;;;;;5005250;28;20031;-69
2023/09/28 06:01:31;;;;;;;14.75;2.13;;;15.90;99.90;;;;;;5009015;28;20374;-69
2023/09/28 06:03:57;;;;;;;11.88;2.15;;;15.90;99.90;;;;;;4999508;28;20042;-69
2023/09/28 06:06:23;;;;;;;17.60;2.20;;;15.90;99.90;;;;;;5001945;28;20512;-70
2023/09/28 06:08:50;;;;;;;14.68;2.95;;;15.80;99.90;;;;;;5004913;28;20034;-70
2023/09/28 06:11:17;;;;;;;12.65;1.75;;;15.80;99.90;;;;;;5003608;28;20104;-69
2023/09/28 06:13:43;;;;;;;15.05;2.78;;;15.90;99.90;;;;;;5003728;28;20037;-70
2023/09/28 06:16:12;;;;;;;10.32;2.33;;;15.90;99.90;;;;;;5006989;28;20616;-70
2023/09/28 06:18:38;;;;;;;13.15;1.95;;;15.90;99.90;;;;;;5003360;28;20406;-69
2023/09/28 06:21:04;;;;;;;13.27;1.77;;;15.80;99.90;;;;;;5000652;28;20026;-69
2023/09/28 06:23:30;;;;;;;13.05;2.47;;;15.90;99.90;;;;;;5005131;28;20391;-70
2023/09/28 06:25:56;;;;;;;13.27;2.10;;;15.90;99.90;;;;;;5010077;28;20100;-70
2023/09/28 06:28:24;;;;;;;22.77;4.28;;;15.90;99.90;;;;;;5009014;28;20030;-69
2023/09/28 06:30:51;;;;;;;20.60;2.53;;;15.90;99.90;;;;;;5010588;28;20524;-70
2023/09/28 06:33:17;;;;;;;15.50;2.20;;;15.90;99.90;;;;;;5013067;28;20509;-71
2023/09/28 06:35:43;;;;;;;25.00;2.95;;;15.90;99.90;;;;;;5006485;28;20040;-69
2023/09/28 06:38:08;;;;;;;13.48;1.98;;;15.90;99.90;;;;;;5006555;28;20038;-69
2023/09/28 06:40:34;;;;;;;16.35;2.25;;;15.90;99.90;;;;;;5001911;28;20112;-69
2023/09/28 06:43:01;;;;;;;16.65;2.58;;;16.00;99.90;;;;;;5012047;28;20072;-70
2023/09/28 06:45:26;;;;;;;15.07;2.05;;;16.00;99.90;;;;;;5009961;28;20037;-71
2023/09/28 06:47:54;;;;;;;11.98;1.90;;;16.10;99.90;;;;;;5006299;28;20801;-70
2023/09/28 06:50:20;;;;;;;13.32;2.65;;;16.10;99.90;;;;;;5005682;28;20092;-74
2023/09/28 06:52:46;;;;;;;18.85;2.95;;;16.20;99.90;;;;;;5006196;28;20038;-70
2023/09/28 06:55:11;;;;;;;15.73;3.38;;;16.30;99.90;;;;;;5009610;28;20030;-70
2023/09/28 06:57:37;;;;;;;17.92;2.55;;;16.30;99.90;;;;;;5015000;28;20144;-70
2023/09/28 07:00:06;;;;;;;34.60;3.17;;;16.40;99.90;;;;;;5014644;28;20081;-70
2023/09/28 07:02:31;;;;;;;19.95;2.85;;;16.50;99.90;;;;;;5011465;28;20037;-70
2023/09/28 07:04:57;;;;;;;12.20;2.17;;;16.60;99.90;;;;;;5011369;28;20048;-70
2023/09/28 07:07:24;;;;;;;21.60;2.90;;;16.70;99.90;;;;;;5007671;28;20727;-70
2023/09/28 07:09:51;;;;;;;21.50;3.05;;;16.80;99.90;;;;;;4999222;28;20413;-71
2023/09/28 07:12:16;;;;;;;20.90;2.85;;;16.90;99.90;;;;;;5005992;28;20118;-70
2023/09/28 07:14:42;;;;;;;18.63;2.72;;;16.90;99.90;;;;;;5005595;28;20112;-71
2023/09/28 07:17:07;;;;;;;20.05;3.55;;;17.00;99.90;;;;;;5006984;28;20080;-71
2023/09/28 07:19:33;;;;;;;13.77;2.15;;;17.10;99.90;;;;;;5005174;28;20068;-69
2023/09/28 07:21:59;;;;;;;16.67;2.83;;;17.10;99.90;;;;;;5003576;28;20520;-71
2023/09/28 07:24:26;;;;;;;15.18;2.28;;;17.10;99.90;;;;;;5005157;28;20042;-70
2023/09/28 07:26:51;;;;;;;19.42;3.83;;;17.10;99.90;;;;;;5006990;28;20032;-70
2023/09/28 07:29:18;;;;;;;12.98;2.25;;;17.20;99.90;;;;;;5003212;28;20034;-70
2023/09/28 07:31:44;;;;;;;21.25;2.25;;;17.20;99.90;;;;;;5008135;28;20136;-69
2023/09/28 07:34:10;;;;;;;16.73;2.08;;;17.20;99.90;;;;;;5006396;28;20105;-70
2023/09/28 07:36:35;;;;;;;17.55;2.58;;;17.20;99.90;;;;;;5004829;28;20038;-71
2023/09/28 07:39:02;;;;;;;15.40;3.10;;;17.40;99.90;;;;;;5003925;28;20025;-71
2023/09/28 07:41:29;;;;;;;18.90;2.22;;;17.40;99.90;;;;;;5004998;28;20037;-70
2023/09/28 07:43:54;;;;;;;14.82;2.60;;;17.40;99.90;;;;;;5004402;28;20029;-70
2023/09/28 07:46:20;;;;;;;28.63;4.43;;;17.50;99.90;;;;;;5006916;28;20046;-70
2023/09/28 07:48:46;;;;;;;18.73;2.55;;;17.50;99.90;;;;;;5002986;28;20068;-71
2023/09/28 07:51:13;;;;;;;19.30;3.67;;;17.50;99.90;;;;;;5005079;28;20110;-70
2023/09/28 07:53:39;;;;;;;24.63;2.72;;;17.50;99.90;;;;;;5004789;28;20060;-70
2023/09/28 07:56:04;;;;;;;16.88;2.33;;;17.50;99.90;;;;;;5007083;28;20490;-71
2023/09/28 07:58:30;;;;;;;17.25;2.13;;;17.60;99.90;;;;;;5003569;28;20038;-70
2023/09/28 08:00:56;;;;;;;12.75;1.90;;;17.70;99.90;;;;;;5004037;28;20029;-70
2023/09/28 08:03:21;;;;;;;14.93;2.75;;;17.70;99.90;;;;;;5006673;28;20635;-71
2023/09/28 08:05:47;;;;;;;17.05;2.65;;;17.80;99.90;;;;;;5001927;28;20091;-71
2023/09/28 08:08:13;;;;;;;17.02;2.03;;;17.80;99.90;;;;;;4998930;28;20117;-70
2023/09/28 08:10:38;;;;;;;13.88;1.73;;;17.90;99.90;;;;;;5001423;28;20128;-70
2023/09/28 08:13:04;;;;;;;22.85;3.90;;;18.00;99.90;;;;;;5006155;28;20502;-70
2023/09/28 08:15:29;;;;;;;9.68;2.25;;;18.00;99.90;;;;;;5000257;28;20061;-70
2023/09/28 08:17:55;;;;;;;17.05;2.50;;;18.10;99.90;;;;;;5004573;28;20033;-70
2023/09/28 08:20:22;;;;;;;17.30;3.05;;;18.10;99.90;;;;;;5001686;28;20088;-72
2023/09/28 08:22:47;;;;;;;16.50;2.55;;;18.20;99.90;;;;;;5006976;28;20026;-70
2023/09/28 08:25:14;;;;;;;17.50;2.97;;;18.30;99.90;;;;;;5000362;28;20050;-71
2023/09/28 08:27:41;;;;;;;20.15;2.53;;;18.40;99.90;;;;;;5005197;28;20072;-68
2023/09/28 08:30:07;;;;;;;12.93;2.13;;;18.50;99.90;;;;;;5003196;28;20049;-70
2023/09/28 08:32:33;;;;;;;23.13;2.85;;;18.50;99.90;;;;;;5003722;28;20037;-71
2023/09/28 08:34:59;;;;;;;10.48;1.77;;;18.60;99.90;;;;;;5010465;28;20042;-70
2023/09/28 08:37:24;;;;;;;18.02;2.75;;;18.60;99.90;;;;;;5001417;28;20110;-69
2023/09/28 08:39:51;;;;;;;12.68;2.10;;;18.60;99.90;;;;;;5000791;28;20080;-70
2023/09/28 08:42:23;;;;;;;15.57;2.63;;;18.70;99.90;;;;;;5004797;28;20395;-71
2023/09/28 08:44:53;;;;;;;15.75;2.83;;;18.70;99.90;;;;;;5005621;28;20111;-70
2023/09/28 08:47:20;;;;;;;;;;;18.80;99.90;;;;;;5003766;28;20450;-69
2023/09/28 08:49:48;;;;;;;18.85;3.08;;;18.80;99.90;;;;;;5015518;28;20374;-70
2023/09/28 08:52:15;;;;;;;11.98;2.42;;;19.00;99.90;;;;;;5004780;28;20041;-69
2023/09/28 08:54:42;;;;;;;16.85;4.10;;;19.10;99.90;;;;;;5002692;28;20033;-71
2023/09/28 08:57:08;;;;;;;12.88;2.33;;;19.10;99.90;;;;;;5000586;28;20544;-70
2023/09/28 08:59:37;;;;;;;12.02;2.70;;;19.10;99.90;;;;;;5003543;28;20478;-70
2023/09/28 09:02:03;;;;;;;22.77;3.05;;;19.00;99.90;;;;;;5002842;28;20041;-71
2023/09/28 09:04:34;;;;;;;11.18;2.05;;;19.00;99.90;;;;;;4999721;28;20406;-69
2023/09/28 09:07:04;;;;;;;11.25;2.42;;;19.10;99.90;;;;;;5002537;28;20452;-69
2023/09/28 09:09:32;;;;;;;21.98;3.17;;;19.20;99.90;;;;;;4999176;28;20034;-70
2023/09/28 09:12:00;;;;;;;14.20;2.20;;;19.30;99.90;;;;;;5007015;28;20038;-70
2023/09/28 09:14:29;;;;;;;15.07;2.20;;;19.30;99.90;;;;;;4999018;28;20092;-69
2023/09/28 09:16:54;;;;;;;11.13;1.73;;;19.40;99.90;;;;;;4999276;28;20587;-70
2023/09/28 09:19:20;;;;;;;11.27;2.28;;;19.60;99.90;;;;;;4998692;28;20062;-70
2023/09/28 09:21:45;;;;;;;18.05;2.88;;;19.60;99.90;;;;;;5004880;28;20029;-70
2023/09/28 09:24:13;;;;;;;14.73;3.13;;;19.60;99.90;;;;;;5000081;28;20030;-69
2023/09/28 09:26:42;;;;;;;13.27;2.00;;;19.60;99.90;;;;;;5010962;28;20041;-70
2023/09/28 09:29:09;;;;;;;13.95;2.28;;;19.60;99.90;;;;;;4999081;28;20027;-71
2023/09/28 09:31:38;;;;;;;12.70;1.88;;;19.60;99.90;;;;;;5007698;28;20036;-70
2023/09/28 09:34:05;;;;;;;12.53;2.20;;;19.50;99.90;;;;;;5003499;28;20045;-69
2023/09/28 09:36:30;;;;;;;18.83;2.00;;;19.50;99.90;;;;;;5001104;28;20030;-70
2023/09/28 09:38:58;;;;;;;12.25;2.65;;;19.50;99.90;;;;;;5008685;28;20033;-71
2023/09/28 09:41:24;;;;;;;17.55;3.55;;;19.50;99.90;;;;;;5002187;28;20025;-71
2023/09/28 09:43:51;;;;;;;11.23;2.35;;;19.50;99.90;;;;;;5000772;28;20038;-70
2023/09/28 09:46:17;;;;;;;16.23;2.38;;;19.60;99.90;;;;;;5006002;28;20095;-72
2023/09/28 09:48:44;;;;;;;15.23;2.95;;;19.70;99.90;;;;;;5006935;28;20038;-70
2023/09/28 09:51:15;;;;;;;12.70;2.25;;;19.70;99.90;;;;;;5004469;28;20034;-71
2023/09/28 09:53:45;;;;;;;12.40;3.33;;;19.80;99.90;;;;;;5004553;28;20030;-71
2023/09/28 09:56:12;;;;;;;15.10;2.10;;;19.90;99.90;;;;;;5003626;28;20092;-71
2023/09/28 09:58:47;;;;;;;12.80;2.10;;;20.00;99.90;;;;;;5008110;28;20512;-71
2023/09/28 10:01:16;;;;;;;13.00;1.98;;;20.00;99.90;;;;;;5004097;28;20406;-72
2023/09/28 10:03:50;;;;;;;17.50;2.40;;;20.00;99.90;;;;;;5006477;28;20033;-71
2023/09/28 10:06:17;;;;;;;11.93;1.88;;;20.10;99.90;;;;;;5005565;28;20041;-70
2023/09/28 10:08:45;;;;;;;17.13;2.15;;;20.10;99.90;;;;;;5002535;28;20109;-70
2023/09/28 10:11:11;;;;;;;15.20;2.78;;;20.20;99.90;;;;;;5000180;28;20490;-69
2023/09/28 10:13:37;;;;;;;19.08;2.28;;;20.10;99.90;;;;;;5001439;28;20038;-70
2023/09/28 10:16:04;;;;;;;16.05;2.10;;;20.00;99.90;;;;;;5005967;28;20084;-70
2023/09/28 10:18:31;;;;;;;10.23;2.00;;;20.00;99.90;;;;;;5004346;28;20048;-70
2023/09/28 10:20:59;;;;;;;30.05;3.25;;;20.00;99.90;;;;;;5008603;28;20478;-69
2023/09/28 10:23:26;;;;;;;18.33;3.70;;;20.00;99.90;;;;;;5006234;28;20033;-69
2023/09/28 10:25:59;;;;;;;23.30;3.05;;;20.10;99.90;;;;;;5012652;28;20029;-69
2023/09/28 10:28:25;;;;;;;15.75;3.38;;;20.00;99.90;;;;;;5014597;28;20091;-70
2023/09/28 10:31:15;;;;;;;8.80;1.67;;;19.90;99.90;;;;;;5010790;28;20041;-69
2023/09/28 10:34:03;;;;;;;25.67;3.28;;;19.90;99.90;;;;;;5003251;28;20606;-70
2023/09/28 10:36:30;;;;;;;14.57;2.60;;;19.90;99.90;;;;;;5008247;28;20037;-69
2023/09/28 10:39:14;;;;;;;9.90;1.50;;;19.80;99.90;;;;;;5008374;28;20040;-70
2023/09/28 10:41:49;;;;;;;18.88;2.67;;;19.80;99.90;;;;;;5002725;28;20038;-69
2023/09/28 10:44:21;;;;;;;13.70;2.65;;;19.70;99.90;;;;;;5004758;28;20073;-69
2023/09/28 10:46:51;;;;;;;14.23;2.03;;;19.90;99.90;;;;;;5005474;28;20445;-68
2023/09/28 10:49:27;;;;;;;17.52;1.88;;;19.80;99.90;;;;;;5005405;28;20049;-70
2023/09/28 10:51:55;;;;;;;9.30;1.85;;;19.90;99.90;;;;;;5006616;28;20034;-70
2023/09/28 10:54:21;;;;;;;13.98;2.20;;;19.90;99.90;;;;;;5003955;28;20112;-69
2023/09/28 10:56:48;;;;;;;17.63;2.53;;;19.90;99.90;;;;;;5007320;28;20037;-70
2023/09/28 10:59:15;;;;;;;14.68;1.85;;;20.00;99.90;;;;;;5007127;28;20104;-69
2023/09/28 11:01:41;;;;;;;15.80;1.90;;;20.00;99.90;;;;;;5007162;28;20026;-69
2023/09/28 11:04:07;;;;;;;9.02;1.63;;;20.00;99.90;;;;;;5004241;28;20065;-71
2023/09/28 11:06:34;;;;;;;14.35;2.05;;;20.00;99.90;;;;;;5005107;28;20104;-71
2023/09/28 11:09:02;;;;;;;12.38;2.10;;;20.00;99.90;;;;;;5007623;28;20048;-70
2023/09/28 11:11:31;;;;;;;11.65;1.90;;;20.00;99.90;;;;;;5007335;28;20505;-69
2023/09/28 11:13:59;;;;;;;12.38;2.63;;;19.90;99.90;;;;;;5005691;28;20103;-69
2023/09/28 11:16:26;;;;;;;11.43;1.50;;;19.90;99.90;;;;;;5002721;28;20034;-70
2023/09/28 11:18:53;;;;;;;20.75;2.40;;;19.90;99.90;;;;;;5006317;28;20104;-70
2023/09/28 11:21:18;;;;;;;12.05;2.65;;;19.80;99.90;;;;;;5006423;28;20263;-71
2023/09/28 11:23:45;;;;;;;10.98;1.85;;;19.80;99.90;;;;;;5004751;28;20093;-69
2023/09/28 11:26:11;;;;;;;13.20;2.47;;;19.80;99.90;;;;;;5005894;28;20037;-70
2023/09/28 11:28:38;;;;;;;14.38;1.83;;;19.70;99.90;;;;;;5004587;28;20118;-70
2023/09/28 11:31:14;;;;;;;13.65;2.10;;;19.70;99.90;;;;;;5005081;28;20646;-70
2023/09/28 11:33:42;;;;;;;10.70;2.50;;;19.70;99.90;;;;;;5022882;28;20057;-71
2023/09/28 11:36:21;;;;;;;15.32;1.58;;;19.70;99.90;;;;;;5004587;28;20037;-70
2023/09/28 11:38:47;;;;;;;16.65;2.80;;;19.80;99.90;;;;;;4995389;28;20416;-70
2023/09/28 11:41:13;;;;;;;12.63;2.08;;;19.80;99.90;;;;;;5005324;28;20453;-70
2023/09/28 11:43:53;;;;;;;15.13;2.60;;;19.80;99.90;;;;;;5002387;28;20403;-70
2023/09/28 11:46:29;;;;;;;8.10;1.88;;;19.80;99.90;;;;;;5003749;28;20042;-69
2023/09/28 11:49:04;;;;;;;12.10;1.83;;;19.90;99.90;;;;;;5004401;28;20402;-70
2023/09/28 11:51:32;;;;;;;15.25;1.88;;;20.00;99.90;;;;;;5004122;28;20120;-70
2023/09/28 11:53:57;;;;;;;11.82;2.70;;;20.10;99.90;;;;;;5001459;28;20034;-69
2023/09/28 11:56:23;;;;;;;19.25;2.28;;;20.20;99.90;;;;;;5003503;28;20030;-70
2023/09/28 11:58:49;;;;;;;7.32;1.45;;;20.30;99.90;;;;;;5001998;28;20573;-69
2023/09/28 12:01:15;;;;;;;15.32;2.88;;;20.30;99.90;;;;;;5012239;28;20080;-70
2023/09/28 12:03:40;;;;;;;18.00;2.10;;;20.40;99.90;;;;;;5001056;28;20050;-70
2023/09/28 12:06:06;;;;;;;9.85;1.83;;;20.40;99.90;;;;;;5006372;28;20037;-69
2023/09/28 12:08:31;;;;;;;14.98;1.95;;;20.40;99.90;;;;;;4999400;28;20034;-70
2023/09/28 12:10:57;;;;;;;11.57;1.63;;;20.40;99.90;;;;;;5008184;28;20042;-69
2023/09/28 12:13:24;;;;;;;15.18;2.00;;;20.50;99.90;;;;;;5000924;28;20111;-70
2023/09/28 12:15:50;;;;;;;9.68;1.38;;;20.50;99.90;;;;;;5002854;28;20037;-71
2023/09/28 12:18:15;;;;;;;13.48;2.53;;;20.50;99.90;;;;;;5000365;28;20031;-72
2023/09/28 12:20:41;;;;;;;12.13;1.83;;;20.60;99.90;;;;;;5003009;28;20065;-72
2023/09/28 12:23:07;;;;;;;8.30;1.63;;;20.60;99.90;;;;;;5005882;28;20040;-71
2023/09/28 12:25:34;;;;;;;11.73;1.60;;;20.40;99.90;;;;;;5001698;28;20072;-72
2023/09/28 12:28:00;;;;;;;7.88;1.25;;;20.30;99.90;;;;;;5006774;28;20025;-70
2023/09/28 12:30:26;;;;;;;11.52;2.30;;;20.20;99.90;;;;;;5000695;28;20085;-70
2023/09/28 12:32:53;;;;;;;13.45;1.33;;;20.20;99.90;;;;;;5001893;28;20038;-69
2023/09/28 12:35:18;;;;;;;12.57;1.73;;;20.20;99.90;;;;;;5001415;28;20029;-69
2023/09/28 12:37:45;;;;;;;11.25;1.73;;;20.20;99.90;;;;;;5000418;28;20050;-70
2023/09/28 12:40:12;;;;;;;15.57;2.25;;;20.20;99.90;;;;;;5001777;28;20754;-71